Flight Track Log - Related Links

Times and Time Zones

All times are in EDT time to prevent confusion due to time zone crossing. See the N329JB flight status page for this flight to view local times or setup timezone preferences in your user account.

Time Position Orientation Groundspeed Altitude Reporting Facility
EDT Latitude Longitude Course Direction KTS MPH feet Rate Location/Type
Sat 03:12:57 PM 38.9000 -77.0833 169° South 179 206 2,500  Level Potomac TRACON
Sat 03:13:57 PM 38.9333 -77.1333 311° West 219 252 5,300 3,053 Climbing Potomac TRACON
Sat 03:14:51 PM 39.0000 -77.1500 349° North 255 293 8,300 2,842 Climbing Potomac TRACON
Sat 03:15:00 PM 38.5376 -76.7167 180° South  Level FlightAware Approximate
Sat 03:15:51 PM 39.0167 -77.0667 76° East 331 381 10,700  Level Potomac TRACON
Sat 03:16:00 PM 38.4372 -76.7000 180° South  Level FlightAware Approximate
Sat 03:16:51 PM 38.9833 -76.9333 108° East 377 434 12,300  Level Potomac TRACON
Sat 03:17:00 PM 38.3489 -76.6833 180° South  Level FlightAware Approximate
Sat 03:17:51 PM 38.9000 -76.8833 155° Southeast 321 369 15,100  Level Potomac TRACON
Sat 03:18:00 PM 38.2482 -76.6745 169° South  Level FlightAware Approximate
Sat 03:19:04 PM 38.7797 -76.8300 161° South 344 396 17,600  Level Washington Center
Sat 03:20:04 PM 38.6844 -76.7858 160° South 358 412 19,900 2,200 Climbing Washington Center
Sat 03:21:04 PM 38.5847 -76.7392 160° South 370 426 22,000 1,550 Climbing Washington Center
Sat 03:22:04 PM 38.4850 -76.7164 170° South 375 432 23,000 1,600 Climbing Washington Center
Sat 03:23:04 PM 38.3850 -76.7069 176° South 370 426 25,200 2,050 Climbing Washington Center
Sat 03:24:04 PM 38.2892 -76.6894 172° South 364 419 27,100 1,600 Climbing Washington Center
Sat 03:25:04 PM 38.1933 -76.6775 174° South 359 413 28,400 1,400 Climbing Washington Center
Sat 03:26:04 PM 38.0956 -76.6631 173° South 353 406 29,900 1,250 Climbing Washington Center
Sat 03:27:04 PM 37.9997 -76.6511 174° South 353 406 30,900 1,400 Climbing Washington Center
Sat 03:28:04 PM 37.9078 -76.6525 181° South 341 392 32,700 1,400 Climbing Washington Center
Sat 03:29:04 PM 37.8222 -76.6644 186° South 327 376 33,700 650 Climbing Washington Center
Sat 03:30:04 PM 37.7325 -76.6764 186° South 327 376 34,000 150 Climbing Washington Center
Sat 03:31:04 PM 37.6425 -76.6881 186° South 327 376 34,000 100 Level Washington Center
Sat 03:32:04 PM 37.5486 -76.6972 184° South 332 382 34,200 550 Climbing Washington Center
Sat 03:33:04 PM 37.4569 -76.7089 186° South 332 382 35,100 900 Climbing Washington Center
Sat 03:34:04 PM 37.3711 -76.7417 197° South 332 382 36,000 450 Climbing Washington Center
Sat 03:35:04 PM 37.2850 -76.7744 197° South 327 376 36,000  Level Washington Center
Sat 03:36:04 PM 37.2014 -76.8147 201° Southwest 327 376 36,000  Level Washington Center
Sat 03:37:04 PM 37.1133 -76.8497 198° South 327 376 36,000  Level Washington Center
Sat 03:38:04 PM 37.0294 -76.8850 199° South 327 376 36,000  Level Washington Center
Sat 03:39:04 PM 36.9456 -76.9225 200° South 327 376 36,000  Level Washington Center
Sat 03:40:04 PM 36.8597 -76.9547 197° South 327 376 36,000  Level Washington Center
Sat 03:41:04 PM 36.7739 -76.9922 199° South 327 376 36,000  Level Washington Center
Sat 03:42:04 PM 36.6858 -77.0269 198° South 327 376 36,000  Level Washington Center
Sat 03:43:04 PM 36.5997 -77.0642 199° South 327 376 36,000  Level Washington Center
Sat 03:44:04 PM 36.5181 -77.0961 197° South 332 382 36,000  Level Washington Center
Sat 03:45:04 PM 36.4214 -77.1381 199° South 332 382 36,000  Level Washington Center
Sat 03:46:04 PM 36.3419 -77.1675 197° South 332 382 36,000  Level Washington Center
Sat 03:47:04 PM 36.2536 -77.2069 200° South 337 388 36,000  Level Washington Center
Sat 03:48:04 PM 36.1656 -77.2411 197° South 337 388 36,000 300 Level Washington Center
Sat 03:49:04 PM 36.0775 -77.2778 199° South 337 388 36,600 650 Climbing Washington Center
Sat 03:50:04 PM 35.9894 -77.3119 197° South 337 388 37,300 600 Climbing Washington Center
Sat 03:51:04 PM 35.9011 -77.3486 199° South 337 388 37,800 350 Climbing Washington Center
Sat 03:52:04 PM 35.8131 -77.3825 197° South 337 388 38,000 100 Climbing Washington Center
Sat 03:53:04 PM 35.7369 -77.4472 215° Southwest 332 382 38,000  Level Washington Center
Sat 03:54:04 PM 35.6628 -77.5169 217° Southwest 337 388 38,000  Level Washington Center
Sat 03:55:04 PM 35.5886 -77.5894 218° Southwest 343 395 38,000  Level Washington Center
Sat 03:56:04 PM 35.5103 -77.6589 216° Southwest 348 400 38,000  Level Washington Center
Sat 03:57:04 PM 35.4381 -77.7308 219° Southwest 348 400 38,000  Level Washington Center
Sat 03:58:04 PM 35.3531 -77.8075 216° Southwest 348 400 38,000  Level Washington Center
Sat 03:59:04 PM 35.2789 -77.8794 218° Southwest 348 400 38,000  Level Washington Center
Sat 04:00:04 PM 35.2022 -77.9483 216° Southwest 348 400 38,000 -400 Level Washington Center
Sat 04:01:04 PM 35.1278 -78.0197 218° Southwest 348 400 37,200 -1,100 Descending Washington Center
Sat 04:02:04 PM 35.0514 -78.0911 217° Southwest 348 400 35,800 -1,400 Descending Washington Center
Sat 04:03:04 PM 34.9744 -78.1647 218° Southwest 348 400 34,400 -551 Descending Washington Center
Sat 04:05:20 PM 34.8069 -78.3164 217° Southwest 350 403 34,000 -122 Descending Jacksonville Center
Sat 04:06:20 PM 34.7325 -78.3936 220° Southwest 350 403 34,000  Level Jacksonville Center
Sat 04:07:20 PM 34.6536 -78.4608 215° Southwest 355 409 34,000  Level Jacksonville Center
Sat 04:08:20 PM 34.5767 -78.5303 217° Southwest 355 409 34,000  Level Jacksonville Center
Sat 04:09:20 PM 34.4978 -78.6022 217° Southwest 350 403 34,000  Level Jacksonville Center
Sat 04:10:20 PM 34.4253 -78.6789 221° Southwest 350 403 34,000  Level Jacksonville Center
Sat 04:11:20 PM 34.3442 -78.7483 215° Southwest 357 411 34,000  Level Jacksonville Center
Sat 04:12:20 PM 34.2692 -78.8197 218° Southwest 357 411 34,000  Level Jacksonville Center
Sat 04:13:20 PM 34.1903 -78.8886 216° Southwest 357 411 34,000  Level Jacksonville Center
Sat 04:14:20 PM 34.1108 -78.9575 216° Southwest 352 405 34,000  Level Jacksonville Center
Sat 04:15:20 PM 34.0339 -79.0261 216° Southwest 352 405 34,000  Level Jacksonville Center
Sat 04:16:20 PM 33.9567 -79.0969 217° Southwest 352 405 34,000 -350 Level Jacksonville Center
Sat 04:17:20 PM 33.8772 -79.1656 216° Southwest 352 405 33,300 -1,200 Descending Jacksonville Center
Sat 04:18:20 PM 33.8022 -79.2336 217° Southwest 352 405 31,600 -1,750 Descending Jacksonville Center
Sat 04:19:20 PM 33.7183 -79.2969 212° Southwest 352 405 29,800 -1,850 Descending Jacksonville Center
Sat 04:20:20 PM 33.6408 -79.3625 215° Southwest 338 389 27,900 -900 Descending Jacksonville Center
Sat 04:21:20 PM 33.5656 -79.4231 214° Southwest 326 375 28,000 50 Climbing Jacksonville Center
Sat 04:22:20 PM 33.4897 -79.4831 213° Southwest 326 375 28,000  Level Jacksonville Center
Sat 04:23:20 PM 33.4144 -79.5458 215° Southwest 326 375 28,000  Level Jacksonville Center
Sat 04:24:20 PM 33.3367 -79.6083 214° Southwest 326 375 28,000  Level Jacksonville Center
Sat 04:25:20 PM 33.2589 -79.6708 214° Southwest 331 381 28,000  Level Jacksonville Center
Sat 04:26:20 PM 33.1811 -79.7308 213° Southwest 336 387 28,000  Level Jacksonville Center
Sat 04:27:20 PM 33.1056 -79.7928 214° Southwest 336 387 28,000  Level Jacksonville Center
Sat 04:28:20 PM 33.0275 -79.8525 213° Southwest 336 387 28,000  Level Jacksonville Center
Sat 04:29:20 PM 32.9497 -79.9147 214° Southwest 341 392 28,000  Level Jacksonville Center
Sat 04:30:20 PM 32.8719 -79.9767 214° Southwest 341 392 28,000  Level Jacksonville Center
Sat 04:31:20 PM 32.7939 -80.0383 214° Southwest 341 392 28,000  Level Jacksonville Center
Sat 04:32:20 PM 32.7142 -80.1025 214° Southwest 341 392 28,000  Level Jacksonville Center
Sat 04:33:20 PM 32.6442 -80.1567 213° Southwest 341 392 28,000  Level Jacksonville Center
Sat 04:34:20 PM 32.5664 -80.2206 215° Southwest 341 392 28,000  Level Jacksonville Center
Sat 04:35:20 PM 32.4842 -80.2819 212° Southwest 341 392 28,000  Level Jacksonville Center
Sat 04:36:20 PM 32.4061 -80.3458 215° Southwest 341 392 28,000  Level Jacksonville Center
Sat 04:37:20 PM 32.3258 -80.4069 213° Southwest 341 392 28,000  Level Jacksonville Center
Sat 04:38:20 PM 32.2478 -80.4681 214° Southwest 341 392 28,000  Level Jacksonville Center
Sat 04:39:20 PM 32.1672 -80.5194 208° Southwest 341 392 28,000  Level Jacksonville Center
Sat 04:40:20 PM 32.0653 -80.5417 190° South 337 388 28,000  Level Jacksonville Center
Sat 04:41:20 PM 31.9803 -80.5608 191° South 350 403 28,000  Level Jacksonville Center
Sat 04:42:20 PM 31.8719 -80.5808 189° South 350 403 28,000  Level Jacksonville Center
Sat 04:43:20 PM 31.7742 -80.6028 191° South 350 403 28,000  Level Jacksonville Center
Sat 04:44:20 PM 31.6889 -80.6219 191° South 355 409 28,000  Level Jacksonville Center
Sat 04:45:20 PM 31.5786 -80.6442 190° South 367 422 28,000  Level Jacksonville Center
Sat 04:46:20 PM 31.4831 -80.6683 192° South 367 422 28,000  Level Jacksonville Center
Sat 04:47:20 PM 31.3811 -80.6853 188° South 361 415 28,000  Level Jacksonville Center
Sat 04:48:20 PM 31.2856 -80.7094 192° South 361 415 28,000  Level Jacksonville Center
Sat 04:49:20 PM 31.1833 -80.7217 186° South 368 423 28,000  Level Jacksonville Center
Sat 04:50:20 PM 31.0853 -80.7214 180° South 368 423 28,000  Level Jacksonville Center
Sat 04:51:20 PM 30.9808 -80.7142 177° South 368 423 28,000  Level Jacksonville Center
Sat 04:52:20 PM 30.8761 -80.7094 178° South 373 429 28,000  Level Jacksonville Center
Sat 04:53:20 PM 30.7719 -80.7069 179° South 373 429 28,000  Level Jacksonville Center
Sat 04:54:20 PM 30.6736 -80.7019 177° South 368 423 28,000  Level Jacksonville Center
Sat 04:55:20 PM 30.5692 -80.6972 178° South 368 423 28,000  Level Jacksonville Center
Sat 04:56:20 PM 30.4669 -80.6969 180° South 368 423 28,000  Level Jacksonville Center
Sat 04:57:20 PM 30.3644 -80.6944 179° South 368 423 28,000  Level Jacksonville Center
Sat 04:58:20 PM 30.2581 -80.6922 179° South 368 423 28,000  Level Jacksonville Center
Sat 04:59:20 PM 30.1556 -80.6922 180° South 368 423 28,000  Level Jacksonville Center
Sat 05:00:20 PM 30.0472 -80.6922 180° South 378 435 28,000  Level Jacksonville Center
Sat 05:01:20 PM 29.9386 -80.6947 181° South 383 441 28,000  Level Jacksonville Center
Sat 05:02:20 PM 29.8322 -80.6969 181° South 383 441 28,000  Level Jacksonville Center
Sat 05:03:20 PM 29.7236 -80.7019 182° South 383 441 28,000  Level Jacksonville Center
Sat 05:04:20 PM 29.6131 -80.7044 181° South 388 447 28,000  Level Jacksonville Center
Sat 05:05:20 PM 29.5025 -80.7117 183° South 388 447 28,000  Level Jacksonville Center
Sat 05:06:52 PM 29.3417 -80.7219 183° South 372 428 28,000  Level Miami Center
Sat 05:07:52 PM 29.2333 -80.7231 181° South 378 435 28,000  Level Miami Center
Sat 05:08:52 PM 29.1311 -80.7289 183° South 384 442 28,000  Level Miami Center
Sat 05:09:52 PM 29.0372 -80.7281 180° South 366 421 28,000  Level Miami Center
Sat 05:10:52 PM 28.9475 -80.7225 177° South 347 399 28,000  Level Miami Center
Sat 05:11:52 PM 28.8683 -80.6486 141° Southeast 335 386 28,000  Level Miami Center
Sat 05:12:52 PM 28.7842 -80.5889 148° Southeast 342 394 28,000  Level Miami Center
Sat 05:13:52 PM 28.6958 -80.5386 153° Southeast 353 406 28,000 -250 Level Miami Center
Sat 05:14:52 PM 28.6156 -80.4933 154° Southeast 353 406 27,500 -600 Descending Miami Center
Sat 05:15:52 PM 28.5272 -80.4433 154° Southeast 358 412 26,800 -900 Descending Miami Center
Sat 05:16:52 PM 28.4306 -80.3906 154° Southeast 358 412 25,700 -900 Descending Miami Center
Sat 05:17:52 PM 28.3461 -80.3431 154° Southeast 351 404 25,000 -500 Descending Miami Center
Sat 05:18:52 PM 28.2636 -80.2981 154° Southeast 343 395 24,700 -500 Descending Miami Center
Sat 05:19:52 PM 28.1894 -80.2581 155° Southeast 331 381 24,000 -350 Descending Miami Center
Sat 05:20:52 PM 28.0989 -80.2083 154° Southeast 331 381 24,000  Level Miami Center
Sat 05:21:52 PM 28.0164 -80.1636 154° Southeast 331 381 24,000  Level Miami Center
Sat 05:22:52 PM 27.9339 -80.1167 153° Southeast 336 387 24,000  Level Miami Center
Sat 05:23:52 PM 27.8494 -80.0719 155° Southeast 336 387 24,000  Level Miami Center
Sat 05:24:52 PM 27.7667 -80.0272 154° Southeast 336 387 24,000  Level Miami Center
Sat 05:25:52 PM 27.6842 -79.9828 154° Southeast 336 387 24,000  Level Miami Center
Sat 05:26:52 PM 27.5997 -79.9358 154° Southeast 336 387 24,000  Level Miami Center
Sat 05:27:52 PM 27.5131 -79.8892 154° Southeast 336 387 24,000  Level Miami Center
Sat 05:28:52 PM 27.4408 -79.8475 153° Southeast 331 381 24,000  Level Miami Center
Sat 05:29:52 PM 27.3581 -79.8033 155° Southeast 331 381 24,000 -150 Level Miami Center
Sat 05:30:52 PM 27.2739 -79.7428 147° Southeast 331 381 23,700 -700 Descending Miami Center
Sat 05:31:52 PM 27.3067 -79.6547 67° East 253 291 22,600 -850 Descending Miami Center
Sat 05:32:52 PM 27.3922 -79.6661 353° North 212 244 22,000 -300 Descending Miami Center
Sat 05:33:52 PM 27.4711 -79.6939 343° North 275 316 22,000  Level Miami Center
Sat 05:34:52 PM 27.5092 -79.7672 300° West 272 313 22,000  Level Miami Center
Sat 05:35:52 PM 27.4353 -79.8144 210° Southwest 227 261 22,000  Level Miami Center
Sat 05:36:52 PM 27.3522 -79.7914 166° South 257 296 22,000  Level Miami Center
Sat 05:37:52 PM 27.2692 -79.7567 160° South 304 350 22,000  Level Miami Center
Sat 05:38:52 PM 27.2814 -79.6681 81° East 255 293 22,000  Level Miami Center
Sat 05:39:52 PM 27.3772 -79.6775 355° North 166 191 22,000  Level Miami Center
Sat 05:40:52 PM 27.4606 -79.7006 346° North 254 292 22,000  Level Miami Center
Sat 05:41:52 PM 27.5050 -79.7694 306° West 263 303 22,000  Level Miami Center
Sat 05:42:52 PM 27.4456 -79.8172 216° Southwest 202 232 22,000  Level Miami Center
Sat 05:43:52 PM 27.3625 -79.7939 166° South 213 245 22,000  Level Miami Center
Sat 05:44:52 PM 27.2736 -79.7544 158° South 297 342 22,000 -500 Level Miami Center
Sat 05:45:52 PM 27.2858 -79.6658 81° East 256 295 21,000 -1,000 Descending Miami Center
Sat 05:46:52 PM 27.3711 -79.6725 356° North 203 234 20,000 -500 Descending Miami Center
Sat 05:47:52 PM 27.4522 -79.6981 344° North 276 318 20,000  Level Miami Center
Sat 05:48:52 PM 27.5053 -79.7603 314° West 283 326 20,000  Level Miami Center
Sat 05:49:52 PM 27.4372 -79.8169 216° Southwest 207 238 20,000  Level Miami Center
Sat 05:50:52 PM 27.3583 -79.7917 164° South 213 245 20,000  Level Miami Center
Sat 05:51:52 PM 27.2817 -79.7639 162° South 265 305 20,000  Level Miami Center
Sat 05:52:52 PM 27.2814 -79.6797 90° East 235 270 20,000  Level Miami Center
Sat 05:53:52 PM 27.3731 -79.6819 359° North 185 213 20,000  Level Miami Center
Sat 05:54:52 PM 27.4561 -79.7050 346° North 273 314 20,000  Level Miami Center
Sat 05:55:52 PM 27.5028 -79.7717 308° West 260 299 20,000  Level Miami Center
Sat 05:56:52 PM 27.4414 -79.8147 212° Southwest 158 182 20,000  Level Miami Center
Sat 05:57:52 PM 27.3647 -79.7942 167° South 181 208 20,000  Level Miami Center
Sat 05:58:52 PM 27.2775 -79.7614 162° South 271 312 20,000  Level Miami Center
Sat 05:59:52 PM 27.2814 -79.6728 87° East 241 277 20,000  Level Miami Center
Sat 06:00:52 PM 27.3669 -79.6747 359° North 185 213 20,000  Level Miami Center
Sat 06:01:52 PM 27.4478 -79.7050 342° North 214 246 20,000  Level Miami Center
Sat 06:02:52 PM 27.5044 -79.7906 307° West 306 352 20,000  Level Miami Center
Sat 06:03:52 PM 27.5417 -79.9156 289° West 350 403 20,000 -100 Level Miami Center
Sat 06:04:52 PM 27.5831 -80.0292 292° West 376 433 19,800 -850 Descending Miami Center
Sat 06:05:52 PM 27.6181 -80.1403 290° West 385 443 18,300 -1,550 Descending Miami Center
Sat 06:06:52 PM 27.6536 -80.2306 294° West 363 418 16,700 -1,900 Descending Miami Center
Sat 06:07:52 PM 27.7056 -80.3281 301° West 340 391 14,500 -2,050 Descending Miami Center
Sat 06:08:52 PM 27.7536 -80.4189 301° West 334 384 12,600 -1,800 Descending Miami Center
Sat 06:09:52 PM 27.7994 -80.5047 301° West 334 384 10,900 -1,300 Descending Miami Center
Sat 06:10:52 PM 27.8392 -80.5811 300° West 321 369 10,000 -425 Descending Miami Center
Sat 06:11:45 PM 27.8833 -80.6667 300° West 337 388 10,100 43 Climbing Orlando TRACON
Sat 06:13:10 PM 27.9500 -80.8000 300° West 337 388 10,100  Level Orlando TRACON
Sat 06:14:10 PM 28.0000 -80.8833 304° West 313 360 10,100 -816 Level Orlando TRACON
Sat 06:15:15 PM 28.0500 -80.9667 304° West 271 312 8,400 -1,400 Descending Orlando TRACON
Sat 06:16:10 PM 28.0833 -81.0333 300° West 261 300 7,300 -1,200 Descending Orlando TRACON
Sat 06:17:15 PM 28.1167 -81.1000 300° West 215 247 6,000 -600 Descending Orlando TRACON
Sat 06:18:10 PM 28.1333 -81.1500 291° West 220 253 6,100 -545 Climbing Orlando TRACON
Sat 06:19:16 PM 28.1667 -81.2167 300° West 217 250 4,900 -1,440 Descending Orlando TRACON
Sat 06:20:15 PM 28.2000 -81.2667 307° West 218 251 3,100 -908 Descending Orlando TRACON
Sat 06:21:15 PM 28.2667 -81.3000 336° Northwest 218 251 3,100 -446 Level Orlando TRACON
Sat 06:22:16 PM 28.3167 -81.3167 344° North 203 234 2,200 -887 Descending Orlando TRACON
Sat 06:23:10 PM 28.3500 -81.3167 360° North 157 181 1,400 -789 Descending Orlando TRACON
Sat 06:24:10 PM 28.3833 -81.3167 360° North 122 140 700 -700 Descending Orlando TRACON
Sat 06:26:00 PM 28.4294 -81.3090 North  Level Estimated

Login

Don't have an account? Register now (free) for customized features, flight alerts, and more!